createdAt,value
2022-09-10T00:03:08.560Z,100430.60
2022-09-10T00:08:12.439Z,100433.40
2022-09-10T00:13:21.069Z,100434.00
2022-09-10T00:18:24.054Z,100437.20
2022-09-10T00:23:30.055Z,100428.40
2022-09-10T00:28:33.005Z,100428.00
2022-09-10T00:33:35.889Z,100422.80
2022-09-10T00:38:38.967Z,100425.40
2022-09-10T00:44:02.525Z,100423.80
2022-09-10T00:49:21.506Z,100436.20
2022-09-10T01:10:36.145Z,100425.60
2022-09-10T01:16:02.539Z,100421.40
2022-09-10T01:21:32.260Z,100410.80
2022-09-10T01:27:19.160Z,100412.00
2022-09-10T01:32:30.212Z,100402.80
2022-09-10T01:37:37.911Z,100397.00
2022-09-10T01:42:41.285Z,100379.00
2022-09-10T01:48:01.831Z,100370.60
2022-09-10T01:53:28.256Z,100365.40
2022-09-10T01:58:40.206Z,100366.20
2022-09-10T02:03:47.256Z,100377.40
2022-09-10T02:08:53.874Z,100377.60
2022-09-10T02:13:57.754Z,100378.20
2022-09-10T02:19:01.558Z,100374.20
2022-09-10T02:24:09.834Z,100369.40
2022-09-10T02:29:14.281Z,100372.40
2022-09-10T02:34:15.785Z,100363.40
2022-09-10T02:39:17.353Z,100359.80
2022-09-10T02:44:18.892Z,100361.40
2022-09-10T02:49:21.105Z,100362.00
2022-09-10T02:54:22.587Z,100355.40
2022-09-10T02:59:24.576Z,100353.40
2022-09-10T03:04:26.091Z,100347.40
2022-09-10T03:09:28.268Z,100337.20
2022-09-10T03:14:30.526Z,100339.80
2022-09-10T03:19:32.034Z,100346.80
2022-09-10T03:24:33.520Z,100344.60
2022-09-10T03:29:35.699Z,100332.40
2022-09-10T03:34:37.268Z,100333.20
2022-09-10T03:39:38.742Z,100325.80
2022-09-10T03:44:40.368Z,100325.80
2022-09-10T03:49:42.173Z,100323.00
2022-09-10T03:54:44.930Z,100320.60
2022-09-10T03:59:46.561Z,100313.40
2022-09-10T04:04:48.405Z,100305.80
2022-09-10T04:09:50.227Z,100308.00
2022-09-10T04:14:52.097Z,100311.20
2022-09-10T04:19:53.659Z,100305.20
2022-09-10T04:24:55.339Z,100300.40
2022-09-10T04:29:57.077Z,100301.20
2022-09-10T04:34:58.629Z,100298.60
2022-09-10T04:40:00.570Z,100299.00
2022-09-10T04:45:02.273Z,100299.80
2022-09-10T04:50:05.928Z,100298.80
2022-09-10T04:55:07.893Z,100298.60
2022-09-10T05:00:10.540Z,100299.80
2022-09-10T05:05:12.060Z,100293.80
2022-09-10T05:10:14.746Z,100297.20
2022-09-10T05:15:16.311Z,100293.00
2022-09-10T05:20:17.813Z,100285.80
2022-09-10T05:25:19.265Z,100291.60
2022-09-10T05:30:21.359Z,100292.00
2022-09-10T05:35:22.846Z,100287.40
2022-09-10T05:40:24.856Z,100284.60
2022-09-10T05:45:26.561Z,100272.80
2022-09-10T05:50:29.776Z,100273.80
2022-09-10T05:55:32.591Z,100276.60
2022-09-10T06:00:35.896Z,100277.00
2022-09-10T06:05:37.426Z,100276.00
2022-09-10T06:10:38.933Z,100279.80
2022-09-10T06:15:41.650Z,100285.80
2022-09-10T06:20:43.145Z,100288.20
2022-09-10T06:25:45.465Z,100282.40
2022-09-10T06:30:46.974Z,100285.20
2022-09-10T06:35:53.997Z,100289.00
2022-09-10T06:41:00.090Z,100291.00
2022-09-10T06:46:19.259Z,100293.60
2022-09-10T06:51:31.436Z,100296.80
2022-09-10T06:56:33.436Z,100295.20
2022-09-10T07:01:35.229Z,100302.00
2022-09-10T07:06:37.779Z,100294.60
2022-09-10T07:11:41.768Z,100306.80
2022-09-10T07:16:44.043Z,100308.60
2022-09-10T07:21:45.551Z,100306.20
2022-09-10T07:26:47.083Z,100302.60
2022-09-10T07:31:49.016Z,100298.20
2022-09-10T07:36:50.748Z,100296.60
2022-09-10T07:41:52.878Z,100284.60
2022-09-10T07:46:54.422Z,100274.00
2022-09-10T07:51:59.776Z,100276.40
2022-09-10T07:57:02.529Z,100283.60
2022-09-10T08:02:05.927Z,100277.80
2022-09-10T08:07:07.783Z,100287.40
2022-09-10T08:12:09.348Z,100289.20
2022-09-10T08:17:10.927Z,100284.80
2022-09-10T08:22:13.847Z,100284.00
2022-09-10T08:27:16.850Z,100283.00
2022-09-10T08:32:18.410Z,100284.80
2022-09-10T08:37:20.894Z,100286.60
2022-09-10T08:42:32.740Z,100279.00
2022-09-10T08:48:01.907Z,100272.00
2022-09-10T08:53:22.575Z,100263.40
2022-09-10T08:58:41.956Z,100261.60
2022-09-10T09:03:46.839Z,100266.80
2022-09-10T09:08:49.639Z,100260.20
2022-09-10T09:14:12.485Z,100270.20
2022-09-10T09:19:48.974Z,100268.20
2022-09-10T09:25:03.543Z,100269.40
2022-09-10T09:30:16.799Z,100265.80
2022-09-10T09:35:31.862Z,100256.80
2022-09-10T09:40:50.144Z,100261.40
2022-09-10T09:45:53.393Z,100257.80
2022-09-10T09:50:59.762Z,100254.80
2022-09-10T09:56:10.383Z,100257.40
2022-09-10T10:01:17.589Z,100257.20
2022-09-10T10:06:28.093Z,100253.00
2022-09-10T10:11:44.901Z,100248.40
2022-09-10T10:16:48.318Z,100253.00
2022-09-10T10:21:49.928Z,100258.20
2022-09-10T10:26:51.556Z,100265.40
2022-09-10T10:31:55.583Z,100253.60
2022-09-10T10:37:42.430Z,100248.20
2022-09-10T10:43:15.713Z,100253.80
2022-09-10T10:48:29.093Z,100259.00
2022-09-10T10:54:04.853Z,100252.80
2022-09-10T10:59:36.335Z,100247.00
2022-09-10T11:04:53.680Z,100241.40
2022-09-10T11:10:24.261Z,100250.00
2022-09-10T11:15:53.324Z,100243.40
2022-09-10T11:21:15.755Z,100243.00
2022-09-10T11:26:54.050Z,100243.40
2022-09-10T11:32:17.799Z,100245.20
2022-09-10T11:37:22.038Z,100242.20
2022-09-10T11:42:41.354Z,100241.40
2022-09-10T11:48:01.536Z,100234.60
2022-09-10T11:53:06.764Z,100230.40
2022-09-10T11:58:45.656Z,100227.80
2022-09-10T12:04:08.205Z,100231.00
2022-09-10T12:09:49.207Z,100226.20
2022-09-10T12:14:51.042Z,100224.40
2022-09-10T12:19:55.972Z,100218.00
2022-09-10T12:25:15.755Z,100209.00
2022-09-10T12:30:30.294Z,100209.00
2022-09-10T12:35:34.894Z,100204.20
2022-09-10T12:40:36.423Z,100209.00
2022-09-10T12:46:09.278Z,100207.00
2022-09-10T12:51:17.457Z,100199.20
2022-09-10T12:56:56.877Z,100203.60
2022-09-10T13:01:59.198Z,100202.20
2022-09-10T13:07:27.372Z,100191.40
2022-09-10T13:12:32.238Z,100190.60
2022-09-10T13:18:00.732Z,100181.80
2022-09-10T13:23:08.255Z,100179.40
2022-09-10T13:28:29.295Z,100187.20
2022-09-10T13:33:44.901Z,100190.20
2022-09-10T13:39:40.923Z,100185.20
2022-09-10T13:45:22.983Z,100172.40
2022-09-10T13:50:37.162Z,100163.80
2022-09-10T13:55:54.574Z,100165.20
2022-09-10T14:01:05.854Z,100169.20
2022-09-10T14:06:22.124Z,100167.60
2022-09-10T14:11:29.781Z,100165.20
2022-09-10T14:16:37.410Z,100165.60
2022-09-10T14:21:38.962Z,100161.20
2022-09-10T14:26:40.543Z,100158.40
2022-09-10T14:31:42.248Z,100148.20
2022-09-10T14:36:43.786Z,100146.40
2022-09-10T14:41:46.469Z,100148.80
2022-09-10T14:47:36.657Z,100147.00
2022-09-10T14:52:38.391Z,100141.00
2022-09-10T14:57:40.743Z,100145.80
2022-09-10T15:02:42.399Z,100135.00
2022-09-10T15:07:46.871Z,100147.60
2022-09-10T15:12:51.918Z,100142.20
2022-09-10T15:17:53.514Z,100144.20
2022-09-10T15:22:55.126Z,100142.60
2022-09-10T15:27:56.774Z,100149.20
2022-09-10T15:32:58.360Z,100148.60
2022-09-10T15:38:02.951Z,100152.20
2022-09-10T15:43:05.601Z,100148.60
2022-09-10T15:48:07.788Z,100146.40
2022-09-10T15:53:20.695Z,100144.80
2022-09-10T15:58:23.502Z,100139.00
2022-09-10T16:03:25.708Z,100145.00
2022-09-10T16:08:28.247Z,100144.60
2022-09-10T16:13:30.635Z,100146.40
2022-09-10T16:18:36.736Z,100143.40
2022-09-10T16:23:41.453Z,100143.40
2022-09-10T16:28:51.751Z,100139.20
2022-09-10T16:33:55.890Z,100137.60
2022-09-10T16:39:02.652Z,100132.20
2022-09-10T16:44:05.343Z,100129.80
2022-09-10T16:49:11.901Z,100125.00
2022-09-10T16:54:15.331Z,100117.00
2022-09-10T16:59:21.149Z,100121.20
2022-09-10T17:04:29.140Z,100119.00
2022-09-10T17:09:31.374Z,100116.40
2022-09-10T17:14:33.022Z,100111.20
2022-09-10T17:19:37.436Z,100112.20
2022-09-10T17:24:38.961Z,100113.60
2022-09-10T17:29:41.135Z,100119.00
2022-09-10T17:34:44.760Z,100115.00
2022-09-10T17:39:47.156Z,100122.00
2022-09-10T17:44:48.907Z,100118.20
2022-09-10T17:49:51.548Z,100113.20
2022-09-10T17:54:53.404Z,100107.60
2022-09-10T17:59:55.171Z,100100.40
2022-09-10T18:04:57.147Z,100101.00
2022-09-10T18:10:02.524Z,100099.20
2022-09-10T18:15:05.837Z,100102.60
2022-09-10T18:20:08.053Z,100104.60
2022-09-10T18:25:09.696Z,100108.00
2022-09-10T18:30:13.145Z,100111.00
2022-09-10T18:35:14.852Z,100107.60
2022-09-10T18:40:17.581Z,100105.40
2022-09-10T18:45:19.946Z,100105.80
2022-09-10T18:50:25.845Z,100109.20
2022-09-10T18:55:28.153Z,100106.60
2022-09-10T19:00:29.716Z,100106.80
2022-09-10T19:05:31.607Z,100102.20
2022-09-10T19:10:36.110Z,100103.40
2022-09-10T19:15:37.668Z,100105.80
2022-09-10T19:20:39.467Z,100106.80
2022-09-10T19:25:56.698Z,100104.20
2022-09-10T19:31:02.755Z,100104.80
2022-09-10T19:36:09.537Z,100103.40
2022-09-10T19:41:18.393Z,100104.60
2022-09-10T19:46:24.610Z,100100.20
2022-09-10T19:51:36.079Z,100095.60
2022-09-10T19:56:41.950Z,100098.40
2022-09-10T20:01:45.714Z,100099.20
2022-09-10T20:06:50.256Z,100096.40
2022-09-10T20:11:52.106Z,100092.40
2022-09-10T20:16:54.221Z,100087.40
2022-09-10T20:21:55.798Z,100086.60
2022-09-10T20:26:57.747Z,100077.00
2022-09-10T20:31:59.850Z,100071.40
2022-09-10T20:37:02.539Z,100069.00
2022-09-10T20:42:04.721Z,100067.80
2022-09-10T20:47:08.528Z,100056.20
2022-09-10T20:52:10.112Z,100055.00
2022-09-10T20:57:11.971Z,100055.60
2022-09-10T21:02:13.544Z,100057.40
2022-09-10T21:07:16.575Z,100057.60
2022-09-10T21:12:18.190Z,100055.20
2022-09-10T21:17:19.739Z,100054.80
2022-09-10T21:22:21.590Z,100050.20
2022-09-10T21:27:23.488Z,100043.20
2022-09-10T21:32:25.055Z,100049.40
2022-09-10T21:37:26.583Z,100042.60
2022-09-10T21:42:28.224Z,100041.20
2022-09-10T21:47:30.564Z,100042.40
2022-09-10T21:52:32.106Z,100044.40
2022-09-10T21:57:33.669Z,100044.00
2022-09-10T22:02:35.621Z,100038.40
2022-09-10T22:07:37.162Z,100035.60
2022-09-10T22:12:38.759Z,100033.20
2022-09-10T22:17:40.792Z,100030.40
2022-09-10T22:22:43.715Z,100026.60
2022-09-10T22:27:45.216Z,100033.80
2022-09-10T22:32:46.745Z,100031.60
2022-09-10T22:37:48.266Z,100026.40
2022-09-10T22:42:51.133Z,100021.40
2022-09-10T22:47:52.693Z,100021.60
2022-09-10T22:52:54.569Z,100023.80
2022-09-10T22:57:56.064Z,100013.40
2022-09-10T23:02:57.647Z,100003.80
2022-09-10T23:07:59.198Z,100003.00
2022-09-10T23:13:00.820Z,99998.20
2022-09-10T23:18:02.367Z,99994.40
2022-09-10T23:23:03.845Z,99984.60
2022-09-10T23:28:07.360Z,99982.40
2022-09-10T23:33:09.281Z,99979.60
2022-09-10T23:38:10.826Z,99974.60
2022-09-10T23:43:13.869Z,99972.00
2022-09-10T23:48:15.407Z,99968.40
2022-09-10T23:53:18.350Z,99958.00
2022-09-10T23:58:21.044Z,99966.40
